METAR Data
IDs: Format: Raw Decoded Include TAF

Data at: 0231 UTC 29 Nov 2020

METAR for:KOLZ (Oelwein Muni, IA, US)
Text:KOLZ 290215Z AUTO 22009KT 10SM CLR 03/00 A2997 RMK A01
Temperature: 3.0°C ( 37°F)
Dewpoint: 0.0°C ( 32°F) [RH = 81%]
Pressure (altimeter):29.97 inches Hg (1015.0 mb)
Winds:from the SW (220 degrees) at 10 MPH (9 knots; 4.6 m/s)
Visibility:10 or more sm (16+ km)
Ceiling:at least 12,000 feet AGL
Clouds:sky clear below 12,000 feet AGL
QC Flag:automated observation with no human augmentation